sensor_id;sensor_type;location;lat;lon;timestamp;P1;durP1;ratioP1;P2;durP2;ratioP2
37377;SDS011;23248;48.120;14.854;2022-09-09T02:05:50;12.43;;;9.70;;
37377;SDS011;23248;48.120;14.854;2022-09-09T02:13:40;15.13;;;10.03;;
37377;SDS011;23248;48.120;14.854;2022-09-09T02:16:14;12.47;;;8.73;;
37377;SDS011;23248;48.120;14.854;2022-09-09T05:30:26;6.40;;;4.30;;
37377;SDS011;23248;48.120;14.854;2022-09-09T05:32:52;4.00;;;3.70;;
37377;SDS011;23248;48.120;14.854;2022-09-09T05:35:20;4.50;;;4.20;;
37377;SDS011;23248;48.120;14.854;2022-09-09T05:37:46;4.60;;;4.30;;
37377;SDS011;23248;48.120;14.854;2022-09-09T05:40:12;4.13;;;3.73;;
37377;SDS011;23248;48.120;14.854;2022-09-09T05:42:38;4.93;;;3.97;;
37377;SDS011;23248;48.120;14.854;2022-09-09T05:45:04;4.17;;;3.87;;
37377;SDS011;23248;48.120;14.854;2022-09-09T05:49:58;4.10;;;3.80;;
37377;SDS011;23248;48.120;14.854;2022-09-09T05:57:16;4.23;;;3.93;;
37377;SDS011;23248;48.120;14.854;2022-09-09T05:59:44;4.57;;;4.20;;
37377;SDS011;23248;48.120;14.854;2022-09-09T06:02:10;4.17;;;3.77;;
37377;SDS011;23248;48.120;14.854;2022-09-09T08:33:57;23.95;;;11.23;;
37377;SDS011;23248;48.120;14.854;2022-09-09T08:36:26;20.38;;;10.15;;
37377;SDS011;23248;48.120;14.854;2022-09-09T08:38:55;18.33;;;9.18;;
37377;SDS011;23248;48.120;14.854;2022-09-09T13:06:47;2.30;;;2.17;;
37377;SDS011;23248;48.120;14.854;2022-09-09T13:09:14;4.47;;;2.20;;
37377;SDS011;23248;48.120;14.854;2022-09-09T13:11:43;2.58;;;2.38;;
37377;SDS011;23248;48.120;14.854;2022-09-09T13:14:19;3.53;;;1.92;;
37377;SDS011;23248;48.120;14.854;2022-09-09T13:16:54;3.17;;;2.00;;
37377;SDS011;23248;48.120;14.854;2022-09-09T13:19:22;2.72;;;2.10;;
37377;SDS011;23248;48.120;14.854;2022-09-09T13:21:50;4.88;;;2.05;;
37377;SDS011;23248;48.120;14.854;2022-09-09T13:24:25;4.30;;;1.80;;
37377;SDS011;23248;48.120;14.854;2022-09-09T14:45:41;3.60;;;2.90;;
37377;SDS011;23248;48.120;14.854;2022-09-09T14:48:07;4.75;;;3.13;;
37377;SDS011;23248;48.120;14.854;2022-09-09T14:50:33;3.20;;;3.05;;
37377;SDS011;23248;48.120;14.854;2022-09-09T14:53:01;3.45;;;3.15;;
37377;SDS011;23248;48.120;14.854;2022-09-09T14:55:27;3.40;;;3.13;;
37377;SDS011;23248;48.120;14.854;2022-09-09T14:57:54;5.07;;;3.30;;
37377;SDS011;23248;48.120;14.854;2022-09-09T15:00:20;3.47;;;3.15;;
37377;SDS011;23248;48.120;14.854;2022-09-09T15:02:45;4.20;;;2.72;;
37377;SDS011;23248;48.120;14.854;2022-09-09T15:05:11;15.23;;;3.05;;
37377;SDS011;23248;48.120;14.854;2022-09-09T15:17:20;2.95;;;2.53;;
37377;SDS011;23248;48.120;14.854;2022-09-09T15:19:46;3.83;;;2.30;;
37377;SDS011;23248;48.120;14.854;2022-09-09T15:22:12;6.88;;;2.65;;
37377;SDS011;23248;48.120;14.854;2022-09-09T15:24:39;7.25;;;2.70;;
37377;SDS011;23248;48.120;14.854;2022-09-09T15:27:04;6.15;;;2.67;;
37377;SDS011;23248;48.120;14.854;2022-09-09T15:29:30;6.20;;;2.30;;
37377;SDS011;23248;48.120;14.854;2022-09-09T15:31:56;6.00;;;2.75;;
37377;SDS011;23248;48.120;14.854;2022-09-09T15:34:22;3.55;;;2.90;;
37377;SDS011;23248;48.120;14.854;2022-09-09T15:36:47;5.15;;;2.88;;
37377;SDS011;23248;48.120;14.854;2022-09-09T15:39:14;3.30;;;3.00;;
37377;SDS011;23248;48.120;14.854;2022-09-09T15:41:42;8.43;;;3.47;;
37377;SDS011;23248;48.120;14.854;2022-09-09T15:44:08;5.38;;;3.70;;
37377;SDS011;23248;48.120;14.854;2022-09-09T15:46:38;6.53;;;3.58;;
37377;SDS011;23248;48.120;14.854;2022-09-09T15:51:42;4.30;;;3.30;;
37377;SDS011;23248;48.120;14.854;2022-09-09T15:54:13;10.60;;;4.28;;
37377;SDS011;23248;48.120;14.854;2022-09-09T15:56:42;8.68;;;5.47;;
37377;SDS011;23248;48.120;14.854;2022-09-09T15:59:08;14.13;;;5.07;;
37377;SDS011;23248;48.120;14.854;2022-09-09T16:01:34;6.65;;;3.38;;
37377;SDS011;23248;48.120;14.854;2022-09-09T16:04:00;11.23;;;4.97;;
37377;SDS011;23248;48.120;14.854;2022-09-09T16:06:27;10.90;;;5.45;;
37377;SDS011;23248;48.120;14.854;2022-09-09T16:08:55;10.05;;;4.55;;
37377;SDS011;23248;48.120;14.854;2022-09-09T16:11:24;6.10;;;5.10;;
37377;SDS011;23248;48.120;14.854;2022-09-09T16:13:52;12.77;;;4.20;;
37377;SDS011;23248;48.120;14.854;2022-09-09T16:16:20;7.97;;;4.00;;
37377;SDS011;23248;48.120;14.854;2022-09-09T16:18:52;7.43;;;4.68;;
37377;SDS011;23248;48.120;14.854;2022-09-09T16:23:50;14.77;;;4.10;;
37377;SDS011;23248;48.120;14.854;2022-09-09T16:26:18;13.15;;;4.05;;
37377;SDS011;23248;48.120;14.854;2022-09-09T16:28:44;11.40;;;4.50;;
37377;SDS011;23248;48.120;14.854;2022-09-09T16:31:15;7.63;;;4.10;;
37377;SDS011;23248;48.120;14.854;2022-09-09T16:33:44;5.95;;;4.25;;
37377;SDS011;23248;48.120;14.854;2022-09-09T16:36:11;8.65;;;4.00;;
37377;SDS011;23248;48.120;14.854;2022-09-09T16:38:38;6.90;;;4.30;;
37377;SDS011;23248;48.120;14.854;2022-09-09T16:41:05;6.88;;;4.40;;
37377;SDS011;23248;48.120;14.854;2022-09-09T16:43:32;13.90;;;4.75;;
37377;SDS011;23248;48.120;14.854;2022-09-09T16:45:59;9.30;;;4.85;;
37377;SDS011;23248;48.120;14.854;2022-09-09T16:48:32;8.40;;;4.55;;
37377;SDS011;23248;48.120;14.854;2022-09-09T16:51:09;11.65;;;4.57;;
37377;SDS011;23248;48.120;14.854;2022-09-09T16:53:39;8.38;;;4.25;;
